createdAt,value
2023-04-03T00:01:06.043Z,7.14
2023-04-03T00:03:34.201Z,5.42
2023-04-03T00:06:02.312Z,5.12
2023-04-03T00:08:29.914Z,5.88
2023-04-03T00:10:57.822Z,8.70
2023-04-03T00:13:26.700Z,5.38
2023-04-03T00:15:55.313Z,5.01
2023-04-03T00:18:23.536Z,5.30
2023-04-03T00:20:51.234Z,4.73
2023-04-03T00:23:18.952Z,5.20
2023-04-03T00:25:46.578Z,4.92
2023-04-03T00:28:14.497Z,5.27
2023-04-03T00:30:44.715Z,5.60
2023-04-03T00:33:13.483Z,6.36
2023-04-03T00:35:41.810Z,5.56
2023-04-03T00:38:09.878Z,5.94
2023-04-03T00:40:39.784Z,25.23
2023-04-03T00:43:13.836Z,38.82
2023-04-03T00:45:44.784Z,5.76
2023-04-03T00:48:19.368Z,5.43
2023-04-03T00:50:48.508Z,5.80
2023-04-03T00:53:23.642Z,5.72
2023-04-03T00:55:54.792Z,4.70
2023-04-03T00:58:29.631Z,5.63
2023-04-03T01:01:00.590Z,5.87
2023-04-03T01:03:28.206Z,11.51
2023-04-03T01:05:56.267Z,5.84
2023-04-03T01:08:24.077Z,5.91
2023-04-03T01:10:51.717Z,5.97
2023-04-03T01:13:25.103Z,6.73
2023-04-03T01:15:52.833Z,6.10
2023-04-03T01:18:24.629Z,6.27
2023-04-03T01:21:29.428Z,6.12
2023-04-03T01:24:15.811Z,5.88
2023-04-03T01:26:43.922Z,5.37
2023-04-03T01:29:11.588Z,5.07
2023-04-03T01:31:47.942Z,9.26
2023-04-03T01:34:15.727Z,5.52
2023-04-03T01:36:43.598Z,5.27
2023-04-03T01:39:11.979Z,5.08
2023-04-03T01:41:39.990Z,5.25
2023-04-03T01:44:07.527Z,5.62
2023-04-03T01:46:35.142Z,5.34
2023-04-03T01:49:04.703Z,5.16
2023-04-03T01:51:32.395Z,4.93
2023-04-03T01:54:00.275Z,5.00
2023-04-03T01:56:28.200Z,5.90
2023-04-03T01:58:55.825Z,5.25
2023-04-03T02:01:23.566Z,5.42
2023-04-03T02:03:51.188Z,5.25
2023-04-03T02:06:20.146Z,5.25
2023-04-03T02:08:47.779Z,6.03
2023-04-03T02:11:15.379Z,8.48
2023-04-03T02:13:43.039Z,6.29
2023-04-03T02:16:11.571Z,8.62
2023-04-03T02:18:39.676Z,5.50
2023-04-03T02:21:07.235Z,5.06
2023-04-03T02:23:36.522Z,6.22
2023-04-03T02:26:05.647Z,4.42
2023-04-03T02:28:33.399Z,4.99
2023-04-03T02:31:01.012Z,5.34
2023-04-03T02:33:28.651Z,5.26
2023-04-03T02:35:57.572Z,5.05
2023-04-03T02:38:26.542Z,5.20
2023-04-03T02:41:01.357Z,4.64
2023-04-03T02:43:29.196Z,4.47
2023-04-03T02:45:57.204Z,5.37
2023-04-03T02:48:25.921Z,5.42
2023-04-03T02:50:53.665Z,5.24
2023-04-03T02:53:21.449Z,5.10
2023-04-03T02:55:49.459Z,13.11
2023-04-03T02:58:18.693Z,19.34
2023-04-03T03:00:46.496Z,6.90
2023-04-03T03:03:14.511Z,7.42
2023-04-03T03:05:42.193Z,5.83
2023-04-03T03:08:09.808Z,5.82
2023-04-03T03:10:37.904Z,5.59
2023-04-03T03:13:05.876Z,5.66
2023-04-03T03:15:35.108Z,6.08
2023-04-03T03:18:03.935Z,5.86
2023-04-03T03:20:31.554Z,6.69
2023-04-03T03:22:59.102Z,6.58
2023-04-03T03:25:26.668Z,6.06
2023-04-03T03:27:54.834Z,6.73
2023-04-03T03:30:22.676Z,5.99
2023-04-03T03:32:51.693Z,5.56
2023-04-03T03:35:19.336Z,5.61
2023-04-03T03:37:46.936Z,5.24
2023-04-03T03:40:14.974Z,5.01
2023-04-03T03:42:42.632Z,5.25
2023-04-03T03:45:11.286Z,5.88
2023-04-03T03:47:39.233Z,5.41
2023-04-03T03:50:09.920Z,5.79
2023-04-03T03:52:37.777Z,5.76
2023-04-03T03:55:05.751Z,5.29
2023-04-03T03:57:33.474Z,5.11
2023-04-03T04:00:01.422Z,5.62
2023-04-03T04:02:29.144Z,9.53
2023-04-03T04:04:56.889Z,5.10
2023-04-03T04:07:25.982Z,5.57
2023-04-03T04:09:55.911Z,5.95
2023-04-03T04:12:23.583Z,24.92
2023-04-03T04:14:51.321Z,16.88
2023-04-03T04:17:19.016Z,5.31
2023-04-03T04:19:46.666Z,5.62
2023-04-03T04:22:23.480Z,5.91
2023-04-03T04:24:53.582Z,5.73
2023-04-03T04:27:21.240Z,5.99
2023-04-03T04:29:48.791Z,5.83
2023-04-03T04:32:16.920Z,5.74
2023-04-03T04:34:44.971Z,6.16
2023-04-03T04:37:12.935Z,6.50
2023-04-03T04:39:41.059Z,7.22
2023-04-03T04:42:10.090Z,6.93
2023-04-03T04:44:37.835Z,6.85
2023-04-03T04:47:05.534Z,6.64
2023-04-03T04:49:33.289Z,6.64
2023-04-03T04:52:00.899Z,6.42
2023-04-03T04:54:28.590Z,6.75
2023-04-03T04:56:56.325Z,7.43
2023-04-03T04:59:25.753Z,7.69
2023-04-03T05:01:53.461Z,8.32
2023-04-03T05:04:21.384Z,8.33
2023-04-03T05:06:49.059Z,8.31
2023-04-03T05:09:16.814Z,8.26
2023-04-03T05:11:44.459Z,8.05
2023-04-03T05:14:12.272Z,8.25
2023-04-03T05:16:41.165Z,8.07
2023-04-03T05:19:08.902Z,8.96
2023-04-03T05:21:36.641Z,9.15
2023-04-03T05:24:04.939Z,8.71
2023-04-03T05:26:35.024Z,7.91
2023-04-03T05:29:03.345Z,9.57
2023-04-03T05:31:31.154Z,9.85
2023-04-03T05:34:02.993Z,12.12
2023-04-03T05:36:30.679Z,9.40
2023-04-03T05:38:58.304Z,12.29
2023-04-03T05:41:26.342Z,9.75
2023-04-03T05:43:54.336Z,10.21
2023-04-03T05:46:22.101Z,8.71
2023-04-03T05:48:50.196Z,11.70
2023-04-03T05:51:22.767Z,13.66
2023-04-03T05:54:01.601Z,11.74
2023-04-03T05:56:29.403Z,10.32
2023-04-03T05:58:57.049Z,10.22
2023-04-03T06:01:24.725Z,12.36
2023-04-03T06:03:52.475Z,9.63
2023-04-03T06:06:21.744Z,9.21
2023-04-03T06:08:49.403Z,9.48
2023-04-03T06:11:17.192Z,8.79
2023-04-03T06:13:46.351Z,10.06
2023-04-03T06:16:16.717Z,9.09
2023-04-03T06:18:44.793Z,8.93
2023-04-03T06:21:12.490Z,9.42
2023-04-03T06:23:41.553Z,9.00
2023-04-03T06:26:09.257Z,8.80
2023-04-03T06:28:36.902Z,10.16
2023-04-03T06:31:05.296Z,9.86
2023-04-03T06:33:33.270Z,11.13
2023-04-03T06:36:01.461Z,10.23
2023-04-03T06:38:29.147Z,10.01
2023-04-03T06:40:59.130Z,9.99
2023-04-03T06:43:28.020Z,10.77
2023-04-03T06:45:55.796Z,9.27
2023-04-03T06:48:24.859Z,10.25
2023-04-03T06:50:52.555Z,9.39
2023-04-03T06:53:20.360Z,9.83
2023-04-03T06:55:48.177Z,8.42
2023-04-03T06:58:19.942Z,8.41
2023-04-03T07:00:49.629Z,8.29
2023-04-03T07:03:17.242Z,8.21
2023-04-03T07:05:44.990Z,8.56
2023-04-03T07:08:12.538Z,8.96
2023-04-03T07:10:40.121Z,8.54
2023-04-03T07:13:08.830Z,10.26
2023-04-03T07:15:38.000Z,8.86
2023-04-03T07:18:05.896Z,8.19
2023-04-03T07:20:33.652Z,9.44
2023-04-03T07:23:02.749Z,9.99
2023-04-03T07:25:31.423Z,8.25
2023-04-03T07:27:58.973Z,9.31
2023-04-03T07:30:26.647Z,9.88
2023-04-03T07:32:55.655Z,10.88
2023-04-03T07:35:24.688Z,9.89
2023-04-03T07:37:52.361Z,10.38
2023-04-03T07:40:20.908Z,8.73
2023-04-03T07:42:48.574Z,9.08
2023-04-03T07:45:16.357Z,9.20
2023-04-03T07:47:44.521Z,9.28
2023-04-03T07:50:13.575Z,8.68
2023-04-03T07:52:41.700Z,9.92
2023-04-03T07:55:09.767Z,8.42
2023-04-03T07:57:37.527Z,8.58
2023-04-03T08:00:06.747Z,8.35
2023-04-03T08:02:34.366Z,8.24
2023-04-03T08:05:02.096Z,8.19
2023-04-03T08:07:31.175Z,8.60
2023-04-03T08:09:58.799Z,9.18
2023-04-03T08:12:26.483Z,9.66
2023-04-03T08:14:54.168Z,10.23
2023-04-03T08:17:22.141Z,10.28
2023-04-03T08:19:49.661Z,11.38
2023-04-03T08:22:17.254Z,10.36
2023-04-03T08:24:58.482Z,9.99
2023-04-03T08:27:28.320Z,10.66
2023-04-03T08:29:56.136Z,9.49
2023-04-03T08:32:24.109Z,9.85
2023-04-03T08:34:51.904Z,9.84
2023-04-03T08:37:20.056Z,8.82
2023-04-03T08:39:49.084Z,8.59
2023-04-03T08:42:28.682Z,8.67
2023-04-03T08:45:02.196Z,7.14
2023-04-03T08:47:39.559Z,8.52
2023-04-03T08:50:16.275Z,9.63
2023-04-03T08:52:49.163Z,8.85
2023-04-03T08:55:26.113Z,9.70
2023-04-03T08:58:04.374Z,10.49
2023-04-03T09:00:41.870Z,10.02
2023-04-03T09:03:13.913Z,9.07
2023-04-03T09:05:49.087Z,8.12
2023-04-03T09:08:24.774Z,9.36
2023-04-03T09:11:07.694Z,9.17
2023-04-03T09:13:50.084Z,8.70
2023-04-03T09:16:35.992Z,8.06
2023-04-03T09:19:16.628Z,6.45
2023-04-03T09:21:44.583Z,6.39
2023-04-03T09:24:16.774Z,22.49
2023-04-03T09:26:53.361Z,8.01
2023-04-03T09:29:24.248Z,7.76
2023-04-03T09:31:58.471Z,6.12
2023-04-03T09:34:28.581Z,5.76
2023-04-03T09:36:59.056Z,5.57
2023-04-03T09:39:28.857Z,5.80
2023-04-03T09:42:00.967Z,5.28
2023-04-03T09:44:32.089Z,5.09
2023-04-03T09:47:17.619Z,4.89
2023-04-03T09:49:45.190Z,5.19
2023-04-03T09:52:21.538Z,4.52
2023-04-03T09:54:49.105Z,4.72
2023-04-03T09:57:18.975Z,4.98
2023-04-03T10:00:00.873Z,8.66
2023-04-03T10:02:35.955Z,10.21
2023-04-03T10:07:37.986Z,33.21
2023-04-03T10:10:19.758Z,102.94
2023-04-03T10:12:47.691Z,53.50
2023-04-03T10:15:18.296Z,87.09
2023-04-03T10:17:58.556Z,72.50
2023-04-03T10:20:37.208Z,91.26
2023-04-03T10:23:19.814Z,89.79
2023-04-03T10:26:03.110Z,104.92
2023-04-03T10:28:42.687Z,43.25
2023-04-03T10:31:22.575Z,37.75
2023-04-03T10:34:05.299Z,43.24
2023-04-03T10:36:43.811Z,39.48
2023-04-03T10:39:25.358Z,33.48
2023-04-03T10:42:15.830Z,38.55
2023-04-03T10:45:19.508Z,41.59
2023-04-03T10:48:01.295Z,38.01
2023-04-03T10:50:42.983Z,42.07
2023-04-03T10:53:25.351Z,40.16
2023-04-03T10:56:03.794Z,44.97
2023-04-03T10:58:36.864Z,60.01
2023-04-03T11:01:10.702Z,57.63
2023-04-03T11:03:44.419Z,37.22
2023-04-03T11:06:16.435Z,33.17
2023-04-03T11:08:51.830Z,31.10
2023-04-03T11:11:25.275Z,26.70
2023-04-03T11:14:02.080Z,28.43
2023-04-03T11:16:43.497Z,22.09
2023-04-03T11:19:22.206Z,22.22
2023-04-03T11:21:57.650Z,7.48
2023-04-03T11:24:29.096Z,8.55
2023-04-03T11:26:58.992Z,6.98
2023-04-03T11:29:35.460Z,7.09
2023-04-03T11:32:13.392Z,9.63
2023-04-03T11:34:46.857Z,6.54
2023-04-03T11:37:26.257Z,11.65
2023-04-03T11:39:58.953Z,10.73
2023-04-03T11:42:37.631Z,22.83
2023-04-03T11:45:39.133Z,34.67
2023-04-03T11:48:44.149Z,9.59
2023-04-03T11:51:44.117Z,15.12
2023-04-03T11:54:48.243Z,36.03
2023-04-03T11:57:44.658Z,18.26
2023-04-03T12:00:50.085Z,9.33
2023-04-03T12:03:57.665Z,8.95
2023-04-03T12:06:55.012Z,9.80
2023-04-03T12:09:30.490Z,11.46
2023-04-03T12:12:20.733Z,10.89
2023-04-03T12:14:48.721Z,13.90
2023-04-03T12:17:24.804Z,24.27
2023-04-03T12:19:53.097Z,66.50
2023-04-03T12:22:23.323Z,21.35
2023-04-03T12:24:53.601Z,19.70
2023-04-03T12:27:41.549Z,14.16
2023-04-03T12:30:20.312Z,12.85
2023-04-03T12:33:18.546Z,13.55
2023-04-03T12:36:05.124Z,14.40
2023-04-03T12:38:59.166Z,13.77
2023-04-03T12:41:40.432Z,15.61
2023-04-03T12:44:36.260Z,16.93
2023-04-03T12:47:23.756Z,13.70
2023-04-03T12:49:53.956Z,12.94
2023-04-03T12:52:33.091Z,13.30
2023-04-03T12:55:02.065Z,21.25
2023-04-03T12:57:29.666Z,31.19
2023-04-03T12:59:59.558Z,27.70
2023-04-03T13:02:32.259Z,21.04
2023-04-03T13:05:07.529Z,22.61
2023-04-03T13:07:37.525Z,25.80
2023-04-03T13:10:17.047Z,71.57
2023-04-03T13:12:50.818Z,66.27
2023-04-03T13:15:22.959Z,69.77
2023-04-03T13:17:51.310Z,63.56
2023-04-03T13:20:24.834Z,61.49
2023-04-03T13:23:00.401Z,62.30
2023-04-03T13:25:32.347Z,56.71
2023-04-03T13:28:12.568Z,59.19
2023-04-03T13:30:57.443Z,56.21
2023-04-03T13:33:27.705Z,65.17
2023-04-03T13:35:57.166Z,53.53
2023-04-03T13:38:30.254Z,95.07
2023-04-03T13:41:00.993Z,60.94
2023-04-03T13:43:34.740Z,59.05
2023-04-03T13:46:22.935Z,53.66
2023-04-03T13:48:53.700Z,66.31
2023-04-03T13:51:25.058Z,62.52
2023-04-03T13:53:57.263Z,51.68
2023-04-03T13:56:31.414Z,61.30
2023-04-03T13:59:03.933Z,84.02
2023-04-03T14:01:43.201Z,80.04
2023-04-03T14:04:18.519Z,93.27
2023-04-03T14:06:47.214Z,83.90
2023-04-03T14:09:19.273Z,100.77
2023-04-03T14:11:51.896Z,142.49
2023-04-03T14:14:23.711Z,96.95
2023-04-03T14:16:56.007Z,102.10
2023-04-03T14:19:30.806Z,100.11
2023-04-03T14:22:00.011Z,88.26
2023-04-03T14:24:30.172Z,85.87
2023-04-03T14:26:58.078Z,88.59
2023-04-03T14:29:27.922Z,98.91
2023-04-03T14:32:11.622Z,97.51
2023-04-03T14:34:42.658Z,112.62
2023-04-03T14:37:13.283Z,111.63
2023-04-03T14:39:42.121Z,102.90
2023-04-03T14:42:15.125Z,80.67
2023-04-03T14:44:42.964Z,106.63
2023-04-03T14:47:27.438Z,99.20
2023-04-03T14:50:00.166Z,78.57
2023-04-03T14:52:30.424Z,79.00
2023-04-03T14:54:59.006Z,75.42
2023-04-03T14:57:29.776Z,83.64
2023-04-03T14:59:58.896Z,73.46
2023-04-03T15:02:31.183Z,80.99
2023-04-03T15:05:00.639Z,72.81
2023-04-03T15:07:31.856Z,79.41
2023-04-03T15:10:20.145Z,83.34
2023-04-03T15:12:49.390Z,75.38
2023-04-03T15:15:19.166Z,84.30
2023-04-03T15:17:52.850Z,86.22
2023-04-03T15:20:23.832Z,87.44
2023-04-03T15:22:52.133Z,86.01
2023-04-03T15:25:22.114Z,74.03
2023-04-03T15:27:49.928Z,134.54
2023-04-03T15:30:21.967Z,80.55
2023-04-03T15:32:51.698Z,105.77
2023-04-03T15:35:19.767Z,93.72
2023-04-03T15:37:47.700Z,80.84
2023-04-03T15:40:15.550Z,17.51
2023-04-03T15:42:43.381Z,16.74
2023-04-03T15:45:12.094Z,18.06
2023-04-03T15:47:40.480Z,18.42
2023-04-03T15:50:10.777Z,16.51
2023-04-03T15:52:38.472Z,24.48
2023-04-03T15:55:06.858Z,17.55
2023-04-03T16:00:08.428Z,14.87
2023-04-03T16:02:36.263Z,19.42
2023-04-03T16:05:04.217Z,15.84
2023-04-03T16:07:35.467Z,15.64
2023-04-03T16:10:03.872Z,14.67
2023-04-03T16:12:31.553Z,24.87
2023-04-03T16:14:59.221Z,27.09
2023-04-03T16:17:28.521Z,25.79
2023-04-03T16:19:56.552Z,23.79
2023-04-03T16:22:27.186Z,17.58
2023-04-03T16:24:56.404Z,17.90
2023-04-03T16:27:24.714Z,27.11
2023-04-03T16:29:52.427Z,77.51
2023-04-03T16:32:20.186Z,83.11
2023-04-03T16:34:48.887Z,97.13
2023-04-03T16:37:17.093Z,92.59
2023-04-03T16:39:44.859Z,85.07
2023-04-03T16:42:14.055Z,81.94
2023-04-03T16:44:42.790Z,66.68
2023-04-03T16:47:10.634Z,76.35
2023-04-03T16:49:38.280Z,61.64
2023-04-03T16:52:06.720Z,49.06
2023-04-03T16:54:35.428Z,30.09
2023-04-03T16:57:04.793Z,22.06
2023-04-03T16:59:33.744Z,22.89
2023-04-03T17:02:02.756Z,25.36
2023-04-03T17:04:30.810Z,35.21
2023-04-03T17:06:58.378Z,41.30
2023-04-03T17:09:27.398Z,34.37
2023-04-03T17:11:55.110Z,32.45
2023-04-03T17:14:22.822Z,34.85
2023-04-03T17:16:53.914Z,26.69
2023-04-03T17:19:21.836Z,30.52
2023-04-03T17:21:49.702Z,26.35
2023-04-03T17:24:17.926Z,28.47
2023-04-03T17:26:45.535Z,30.33
2023-04-03T17:29:13.429Z,27.25
2023-04-03T17:31:41.275Z,22.96
2023-04-03T17:34:10.588Z,24.37
2023-04-03T17:36:39.550Z,29.81
2023-04-03T17:39:07.252Z,35.13
2023-04-03T17:41:35.012Z,31.51
2023-04-03T17:44:03.937Z,36.97
2023-04-03T17:46:33.771Z,38.12
2023-04-03T17:49:02.631Z,30.88
2023-04-03T17:51:32.078Z,30.92
2023-04-03T17:54:01.771Z,30.99
2023-04-03T17:56:31.826Z,28.45
2023-04-03T17:59:02.121Z,34.13
2023-04-03T18:01:32.137Z,32.53
2023-04-03T18:04:02.400Z,35.48
2023-04-03T18:06:34.588Z,34.53
2023-04-03T18:09:09.190Z,36.23
2023-04-03T18:11:37.581Z,39.26
2023-04-03T18:14:07.964Z,50.70
2023-04-03T18:16:36.419Z,62.28
2023-04-03T18:21:40.541Z,54.05
2023-04-03T18:24:14.324Z,57.10
2023-04-03T18:26:45.640Z,57.57
2023-04-03T18:29:15.186Z,52.48
2023-04-03T18:31:50.389Z,52.80
2023-04-03T18:34:18.321Z,47.03
2023-04-03T18:36:47.629Z,52.98
2023-04-03T18:39:15.782Z,49.70
2023-04-03T18:41:44.204Z,50.21
2023-04-03T18:44:17.807Z,52.32
2023-04-03T18:46:46.214Z,49.61
2023-04-03T18:49:14.492Z,53.74
2023-04-03T18:51:42.301Z,59.67
2023-04-03T18:54:11.679Z,67.43
2023-04-03T18:56:41.646Z,66.21
2023-04-03T18:59:09.546Z,73.15
2023-04-03T19:01:37.479Z,66.70
2023-04-03T19:04:05.280Z,56.20
2023-04-03T19:06:35.422Z,59.61
2023-04-03T19:09:06.107Z,67.89
2023-04-03T19:11:35.481Z,67.20
2023-04-03T19:14:15.190Z,60.77
2023-04-03T19:16:45.500Z,62.56
2023-04-03T19:19:13.398Z,65.19
2023-04-03T19:21:41.581Z,55.92
2023-04-03T19:24:10.367Z,59.65
2023-04-03T19:26:42.540Z,61.82
2023-04-03T19:29:11.109Z,67.33
2023-04-03T19:31:39.694Z,56.67
2023-04-03T19:34:08.046Z,56.00
2023-04-03T19:36:36.748Z,55.31
2023-04-03T19:39:04.976Z,54.74
2023-04-03T19:41:36.001Z,54.99
2023-04-03T19:44:08.876Z,50.01
2023-04-03T19:46:36.852Z,66.84
2023-04-03T19:49:04.560Z,50.59
2023-04-03T19:51:32.383Z,57.19
2023-04-03T19:54:00.136Z,64.98
2023-04-03T19:56:27.948Z,65.86
2023-04-03T19:58:55.698Z,59.65
2023-04-03T20:01:24.932Z,58.68
2023-04-03T20:03:52.719Z,60.62
2023-04-03T20:06:20.469Z,60.75
2023-04-03T20:08:48.110Z,54.12
2023-04-03T20:11:15.732Z,53.85
2023-04-03T20:13:43.302Z,53.51
2023-04-03T20:16:12.617Z,62.04
2023-04-03T20:18:41.775Z,60.66
2023-04-03T20:21:09.698Z,63.83
2023-04-03T20:24:04.134Z,67.00
2023-04-03T20:26:48.426Z,70.12
2023-04-03T20:29:16.111Z,57.99
2023-04-03T20:31:44.364Z,57.42
2023-04-03T20:34:13.388Z,59.39
2023-04-03T20:36:41.909Z,61.94
2023-04-03T20:39:09.495Z,63.13
2023-04-03T20:41:37.139Z,54.96
2023-04-03T20:44:05.332Z,57.24
2023-04-03T20:46:49.199Z,57.62
2023-04-03T20:49:21.473Z,60.03
2023-04-03T20:51:49.302Z,54.77
2023-04-03T20:54:17.492Z,63.73
2023-04-03T20:56:45.354Z,57.41
2023-04-03T20:59:13.325Z,52.36
2023-04-03T21:01:40.988Z,58.85
2023-04-03T21:04:14.458Z,66.06
2023-04-03T21:07:19.132Z,68.27
2023-04-03T21:10:24.860Z,65.76
2023-04-03T21:13:30.079Z,61.19
2023-04-03T21:15:57.465Z,64.96
2023-04-03T21:18:44.535Z,73.01
2023-04-03T21:21:20.144Z,77.34
2023-04-03T21:23:49.387Z,75.49
2023-04-03T21:26:18.045Z,74.28
2023-04-03T21:28:45.649Z,81.40
2023-04-03T21:31:17.646Z,72.53
2023-04-03T21:33:46.665Z,67.55
2023-04-03T21:36:14.430Z,67.51
2023-04-03T21:38:42.469Z,67.72
2023-04-03T21:41:10.081Z,80.50
2023-04-03T21:43:37.589Z,76.75
2023-04-03T21:46:05.285Z,77.64
2023-04-03T21:48:33.033Z,88.27
2023-04-03T21:51:05.065Z,91.45
2023-04-03T21:53:32.644Z,77.30
2023-04-03T21:56:00.468Z,76.09
2023-04-03T21:58:29.192Z,71.46
2023-04-03T22:00:56.781Z,77.50
2023-04-03T22:03:24.652Z,82.52
2023-04-03T22:05:52.274Z,73.35
2023-04-03T22:08:21.315Z,87.33
2023-04-03T22:10:48.931Z,82.52
2023-04-03T22:13:16.787Z,80.19
2023-04-03T22:15:47.366Z,92.54
2023-04-03T22:18:15.061Z,98.98
2023-04-03T22:20:43.460Z,101.16
2023-04-03T22:23:11.207Z,111.45
2023-04-03T22:25:40.244Z,113.24
2023-04-03T22:28:07.854Z,108.95
2023-04-03T22:30:35.414Z,103.64
2023-04-03T22:33:02.981Z,104.40
2023-04-03T22:35:30.784Z,92.93
2023-04-03T22:37:58.359Z,78.86
2023-04-03T22:40:25.906Z,102.75
2023-04-03T22:42:54.876Z,89.81
2023-04-03T22:45:22.454Z,109.08
2023-04-03T22:47:50.102Z,103.67
2023-04-03T22:50:17.797Z,107.44
2023-04-03T22:52:45.344Z,95.39
2023-04-03T22:55:19.161Z,88.75
2023-04-03T22:57:47.810Z,92.52
2023-04-03T23:00:17.300Z,118.52
2023-04-03T23:02:47.323Z,121.84
2023-04-03T23:05:15.172Z,117.27
2023-04-03T23:07:45.578Z,121.22
2023-04-03T23:10:13.398Z,92.07
2023-04-03T23:12:41.172Z,239.31
2023-04-03T23:15:09.670Z,1322.37
2023-04-03T23:17:40.322Z,81.14
2023-04-03T23:20:10.815Z,74.20
2023-04-03T23:22:38.581Z,168.68
2023-04-03T23:25:06.644Z,435.37
2023-04-03T23:27:34.258Z,327.79
2023-04-03T23:30:01.920Z,760.48
2023-04-03T23:32:30.621Z,1645.61
2023-04-03T23:34:59.582Z,1442.86
2023-04-03T23:37:27.471Z,426.81
2023-04-03T23:39:55.074Z,715.00
2023-04-03T23:42:22.732Z,3510.37
2023-04-03T23:44:50.651Z,4817.48
2023-04-03T23:47:18.232Z,524.97
2023-04-03T23:49:46.055Z,1246.25
2023-04-03T23:52:14.985Z,557.14
2023-04-03T23:54:42.746Z,770.42
2023-04-03T23:57:10.357Z,487.90
2023-04-03T23:59:37.942Z,3773.91
